createdAt,value
2022-11-04T16:21:13.656Z,77.50
2022-11-04T16:23:40.055Z,76.80
2022-11-04T16:26:06.459Z,78.80
2022-11-04T16:28:37.016Z,80.00
2022-11-04T16:31:03.474Z,79.70
2022-11-04T16:33:29.945Z,78.50
2022-11-04T16:35:56.355Z,77.20
2022-11-04T16:38:25.178Z,77.10
2022-11-04T16:40:51.702Z,77.30
2022-11-04T16:43:18.157Z,77.40
2022-11-04T16:45:47.296Z,77.40
2022-11-04T16:48:17.371Z,77.50
2022-11-04T16:50:43.866Z,77.50
2022-11-04T16:53:10.542Z,77.60
2022-11-04T16:55:37.239Z,77.60
2022-11-04T16:58:03.746Z,77.70
2022-11-04T17:00:30.230Z,77.70
2022-11-04T17:02:57.678Z,77.70
2022-11-04T17:05:24.093Z,78.40
2022-11-04T17:07:54.505Z,77.70
2022-11-04T17:10:21.830Z,80.40
2022-11-04T17:12:48.254Z,77.70
2022-11-04T17:15:15.595Z,78.10
2022-11-04T17:17:42.118Z,78.00
2022-11-04T17:20:08.583Z,77.70
2022-11-04T17:22:35.010Z,77.80
2022-11-04T17:25:01.452Z,77.80
2022-11-04T17:27:27.899Z,77.90
2022-11-04T17:29:54.410Z,77.90
2022-11-04T17:32:20.855Z,78.70
2022-11-04T17:34:47.278Z,77.90
2022-11-04T17:37:13.694Z,77.90
2022-11-04T17:39:40.085Z,78.00
2022-11-04T17:42:06.492Z,77.90
2022-11-04T17:44:32.900Z,78.00
2022-11-04T17:46:59.335Z,78.00
2022-11-04T17:49:25.751Z,78.10
2022-11-04T17:51:52.185Z,78.10
2022-11-04T17:54:18.605Z,78.20
2022-11-04T17:56:45.025Z,78.20
2022-11-04T17:59:11.412Z,78.10
2022-11-04T18:01:38.580Z,78.30
2022-11-04T18:04:05.116Z,78.30
2022-11-04T18:06:31.572Z,78.30
2022-11-04T18:08:57.993Z,78.30
2022-11-04T18:11:24.434Z,78.40
2022-11-04T18:13:50.857Z,78.40
2022-11-04T18:16:17.364Z,78.40
2022-11-04T18:18:43.769Z,78.50
2022-11-04T18:21:10.191Z,78.40
2022-11-04T18:23:36.593Z,78.40
2022-11-04T18:26:05.779Z,78.60
2022-11-04T18:28:32.179Z,78.50
2022-11-04T18:30:58.614Z,79.30
2022-11-04T18:33:25.092Z,78.60
2022-11-04T18:35:51.506Z,78.60
2022-11-04T18:38:17.945Z,78.60
2022-11-04T18:40:44.505Z,78.60
2022-11-04T18:43:11.285Z,78.60
2022-11-04T18:45:37.960Z,79.30
2022-11-04T18:48:04.371Z,78.60
2022-11-04T18:50:30.796Z,78.60
2022-11-04T18:52:57.203Z,78.60
2022-11-04T18:55:23.619Z,78.70
2022-11-04T18:57:50.016Z,78.60
2022-11-04T19:00:17.393Z,78.60
2022-11-04T19:02:43.990Z,78.80
2022-11-04T19:05:10.425Z,78.80
2022-11-04T19:07:36.858Z,79.80
2022-11-04T19:10:03.264Z,78.80
2022-11-04T19:12:29.716Z,80.00
2022-11-04T19:14:56.160Z,78.80
2022-11-04T19:17:22.586Z,78.70
2022-11-04T19:19:49.021Z,78.70
2022-11-04T19:22:15.433Z,78.80
2022-11-04T19:24:41.843Z,78.80
2022-11-04T19:27:08.255Z,78.80
2022-11-04T19:29:34.687Z,78.90
2022-11-04T19:32:01.110Z,78.90
2022-11-04T19:34:27.545Z,78.90
2022-11-04T19:36:53.974Z,78.90
2022-11-04T19:39:20.393Z,78.70
2022-11-04T19:41:46.839Z,78.80
2022-11-04T19:44:13.248Z,78.90
2022-11-04T19:46:39.761Z,79.00
2022-11-04T19:49:06.175Z,78.90
2022-11-04T19:51:32.619Z,78.90
2022-11-04T19:53:59.042Z,81.30
2022-11-04T19:56:25.500Z,79.00
2022-11-04T19:58:51.945Z,78.80
2022-11-04T20:01:18.461Z,79.00
2022-11-04T20:03:44.971Z,79.00
2022-11-04T20:06:11.458Z,79.00
2022-11-04T20:08:37.866Z,79.00
2022-11-04T20:11:04.283Z,78.90
2022-11-04T20:13:30.689Z,79.00
2022-11-04T20:15:57.112Z,79.00
2022-11-04T20:18:23.529Z,80.50
2022-11-04T20:20:49.940Z,79.00
2022-11-04T20:23:16.371Z,79.00
2022-11-04T20:25:42.830Z,79.00
2022-11-04T20:28:09.608Z,79.00
2022-11-04T20:30:36.201Z,79.40
2022-11-04T20:33:02.620Z,79.00
2022-11-04T20:35:29.039Z,79.00
2022-11-04T20:37:55.443Z,79.00
2022-11-04T20:40:21.975Z,79.00
2022-11-04T20:42:48.478Z,79.00
2022-11-04T20:45:14.907Z,79.00
2022-11-04T20:47:41.336Z,79.00
2022-11-04T20:50:07.766Z,79.00
2022-11-04T20:52:34.207Z,79.00
2022-11-04T20:55:00.640Z,79.00
2022-11-04T20:57:27.090Z,79.00
2022-11-04T20:59:53.506Z,79.10
2022-11-04T21:02:20.004Z,79.10
2022-11-04T21:04:46.467Z,79.10
2022-11-04T21:07:13.644Z,79.10
2022-11-04T21:09:40.049Z,79.00
2022-11-04T21:12:06.484Z,79.90
2022-11-04T21:14:33.163Z,79.10
2022-11-04T21:16:59.625Z,79.10
2022-11-04T21:19:26.032Z,80.50
2022-11-04T21:21:52.555Z,79.10
2022-11-04T21:24:18.981Z,79.10
2022-11-04T21:26:45.395Z,79.10
2022-11-04T21:29:11.797Z,79.20
2022-11-04T21:31:38.276Z,79.30
2022-11-04T21:34:05.711Z,79.30
2022-11-04T21:36:32.128Z,79.30
2022-11-04T21:38:58.610Z,79.30
2022-11-04T21:41:25.046Z,81.40
2022-11-04T21:43:51.524Z,79.30
2022-11-04T21:46:18.748Z,79.40
2022-11-04T21:48:45.199Z,80.10
2022-11-04T21:51:12.957Z,80.20
2022-11-04T22:00:50.856Z,80.20
2022-11-04T22:02:03.209Z,79.30
2022-11-04T22:04:29.906Z,79.40
2022-11-04T22:06:56.495Z,79.30
2022-11-04T22:09:31.658Z,79.50
2022-11-04T22:20:26.464Z,79.40
2022-11-04T22:28:29.592Z,79.30
2022-11-04T22:33:57.492Z,79.40
2022-11-04T22:36:31.062Z,80.20
2022-11-04T22:39:04.761Z,79.40
2022-11-04T22:42:09.797Z,80.00
2022-11-04T22:50:17.541Z,79.50
2022-11-04T22:55:25.555Z,79.30
2022-11-04T22:57:52.059Z,80.30
2022-11-04T23:00:23.587Z,79.50
2022-11-04T23:02:50.205Z,79.50
2022-11-04T23:05:16.721Z,79.50
2022-11-04T23:07:43.148Z,79.50
2022-11-04T23:10:09.606Z,79.40
2022-11-04T23:12:36.020Z,79.50
2022-11-04T23:15:02.430Z,79.60
2022-11-04T23:17:28.884Z,79.60
2022-11-04T23:19:55.302Z,79.60
2022-11-04T23:22:21.766Z,79.50
2022-11-04T23:24:48.181Z,79.50
2022-11-04T23:27:14.710Z,79.60
2022-11-04T23:29:41.151Z,79.50
2022-11-04T23:32:07.610Z,79.60
2022-11-04T23:34:34.054Z,79.80
2022-11-04T23:37:00.500Z,79.50
2022-11-04T23:39:26.901Z,79.50
2022-11-04T23:41:53.313Z,79.50
2022-11-04T23:44:19.709Z,79.70
2022-11-04T23:46:46.168Z,79.70
2022-11-04T23:49:12.586Z,79.60
2022-11-04T23:51:39.012Z,79.70
2022-11-04T23:54:05.440Z,79.60
2022-11-04T23:56:31.836Z,79.70
2022-11-04T23:58:58.254Z,79.70
